Kelsey, Minnesota
Current Conditions -  °F | °C
As of 10:31 PM on Wednesday 26 Nov 2014 (Local Time) from KEVM Reporting Station
Clear Clear  
Wind Chill: -10°   Ceiling: Unl
Heat Index:   Visibility: 10mi
Dew Point: -6°   Wind: 5mph
Humidity: 78%   Direction: 350°N
Pressure: 30.37"   Gusts: NA
Location:  47.1793°N, 92.3523°W
Report Text: KEVM 270431Z AUTO 35004KT 10SM CLR M18/M21 A3037 RMK AO2
Loading
Personal Weather Stations






























Interactive Weather Map New forecast layout! Learn more

10-Day Weather Forecast

Advertisements
Track Severe Weather on mobile